Terminal Aerodrome Forecast
Issued by NWS

Home | Current Version | Previous Version | Text Only | Print | Product List | Glossary Off
Versions: 1 2 3 4 5 6 7 8 9 10 11 12 13

384
FTUS43 KTOP 201732
TAFMHK
TAF
KMHK 201732Z 2018/2118 22017G27KT P6SM FEW200
     FM210000 21012KT P6SM SCT200
     FM210600 23008KT P6SM SCT250
     FM210900 33004KT P6SM BKN100
     FM211400 01011KT P6SM BKN060=

USA.gov is the U.S. government's official web portal to all federal, state and local government web resources and services.